createdAt,value
2023-04-10T00:00:14.263Z,35.42
2023-04-10T00:05:19.428Z,35.40
2023-04-10T00:10:26.852Z,40.13
2023-04-10T00:15:34.562Z,32.53
2023-04-10T00:20:39.594Z,35.67
2023-04-10T00:25:44.900Z,33.60
2023-04-10T00:30:52.676Z,37.03
2023-04-10T00:35:57.947Z,32.00
2023-04-10T00:41:02.993Z,36.33
2023-04-10T00:46:10.903Z,36.38
2023-04-10T00:51:16.275Z,37.15
2023-04-10T00:56:22.164Z,33.72
2023-04-10T01:01:30.041Z,36.20
2023-04-10T01:06:42.429Z,32.13
2023-04-10T01:11:52.762Z,36.42
2023-04-10T01:22:10.831Z,33.05
2023-04-10T01:27:27.481Z,33.97
2023-04-10T01:32:37.665Z,34.58
2023-04-10T01:37:45.925Z,36.05
2023-04-10T01:42:53.458Z,33.80
2023-04-10T01:48:01.408Z,33.35
2023-04-10T01:53:06.750Z,36.53
2023-04-10T01:58:12.386Z,34.83
2023-04-10T02:03:20.406Z,33.35
2023-04-10T02:08:29.949Z,35.80
2023-04-10T02:13:37.870Z,34.75
2023-04-10T02:18:45.947Z,34.97
2023-04-10T02:23:51.577Z,34.47
2023-04-10T02:28:56.871Z,39.78
2023-04-10T02:34:04.528Z,30.20
2023-04-10T02:39:09.979Z,29.98
2023-04-10T02:44:16.098Z,29.70
2023-04-10T02:49:23.762Z,27.88
2023-04-10T02:54:28.785Z,29.25
2023-04-10T02:59:34.035Z,27.45
2023-04-10T03:04:41.809Z,29.20
2023-04-10T03:09:46.936Z,28.50
2023-04-10T03:14:52.839Z,29.80
2023-04-10T03:20:00.639Z,29.08
2023-04-10T03:25:05.951Z,27.08
2023-04-10T03:30:12.324Z,27.65
2023-04-10T03:35:20.019Z,26.95
2023-04-10T03:40:25.075Z,34.58
2023-04-10T03:45:30.154Z,28.85
2023-04-10T03:50:37.948Z,24.75
2023-04-10T03:55:42.998Z,29.40
2023-04-10T04:00:48.067Z,26.58
2023-04-10T04:05:55.746Z,24.55
2023-04-10T04:11:00.933Z,24.83
2023-04-10T04:16:06.342Z,26.88
2023-04-10T04:21:14.587Z,25.92
2023-04-10T04:26:19.718Z,22.85
2023-04-10T04:31:25.556Z,25.42
2023-04-10T04:36:33.231Z,33.42
2023-04-10T04:41:38.536Z,30.15
2023-04-10T04:46:44.609Z,28.92
2023-04-10T04:51:52.558Z,26.15
2023-04-10T04:56:58.070Z,24.83
2023-04-10T05:02:03.526Z,25.90
2023-04-10T05:07:11.507Z,27.88
2023-04-10T05:12:16.728Z,21.73
2023-04-10T05:17:21.778Z,26.10
2023-04-10T05:22:29.632Z,24.00
2023-04-10T05:27:34.740Z,22.55
2023-04-10T05:32:39.811Z,23.92
2023-04-10T05:37:47.524Z,21.55
2023-04-10T05:42:52.718Z,21.63
2023-04-10T05:47:57.875Z,20.40
2023-04-10T05:53:05.539Z,22.00
2023-04-10T05:58:10.668Z,19.83
2023-04-10T06:03:15.888Z,21.63
2023-04-10T06:08:23.670Z,20.45
2023-04-10T06:13:28.776Z,21.92
2023-04-10T06:18:33.837Z,18.75
2023-04-10T06:23:42.425Z,21.35
2023-04-10T06:28:47.788Z,18.58
2023-04-10T06:33:53.200Z,19.42
2023-04-10T06:39:00.798Z,18.55
2023-04-10T06:44:05.919Z,22.13
2023-04-10T06:49:10.990Z,20.85
2023-04-10T06:54:18.696Z,21.17
2023-04-10T06:59:23.780Z,21.70
2023-04-10T07:04:29.048Z,22.83
2023-04-10T07:09:36.842Z,20.83
2023-04-10T07:14:41.974Z,24.88
2023-04-10T07:19:47.019Z,20.80
2023-04-10T07:24:54.739Z,20.50
2023-04-10T07:29:59.852Z,21.67
2023-04-10T07:35:04.969Z,22.45
2023-04-10T07:40:16.154Z,19.13
2023-04-10T07:45:21.345Z,17.48
2023-04-10T07:50:26.501Z,16.80
2023-04-10T07:55:34.191Z,18.35
2023-04-10T08:00:39.421Z,18.67
2023-04-10T08:05:44.592Z,16.15
2023-04-10T08:10:52.757Z,17.98
2023-04-10T08:15:57.853Z,17.30
2023-04-10T08:21:02.907Z,14.15
2023-04-10T08:26:10.870Z,14.98
2023-04-10T08:31:16.113Z,15.02
2023-04-10T08:36:21.344Z,15.75
2023-04-10T08:41:29.211Z,13.70
2023-04-10T08:46:36.465Z,13.38
2023-04-10T08:51:47.945Z,14.15
2023-04-10T08:56:58.816Z,10.93
2023-04-10T09:02:04.015Z,11.18
2023-04-10T09:07:09.843Z,13.43
2023-04-10T09:12:19.732Z,11.00
2023-04-10T09:17:26.291Z,8.32
2023-04-10T09:22:36.023Z,8.07
2023-04-10T09:27:43.655Z,8.07
2023-04-10T09:32:49.620Z,6.60
2023-04-10T09:37:54.820Z,7.55
2023-04-10T09:43:02.549Z,6.63
2023-04-10T09:48:09.105Z,6.85
2023-04-10T09:53:15.255Z,7.03
2023-04-10T09:58:23.024Z,7.75
2023-04-10T10:03:28.588Z,6.88
2023-04-10T10:08:34.683Z,5.45
2023-04-10T10:13:47.223Z,6.22
2023-04-10T10:18:58.739Z,8.10
2023-04-10T10:24:05.143Z,5.78
2023-04-10T10:29:14.408Z,6.28
2023-04-10T10:34:20.212Z,7.53
2023-04-10T10:39:32.584Z,7.38
2023-04-10T10:44:45.645Z,5.63
2023-04-10T10:49:58.996Z,6.43
2023-04-10T10:55:04.288Z,7.75
2023-04-10T11:00:13.949Z,7.65
2023-04-10T11:05:52.113Z,7.72
2023-04-10T11:11:05.071Z,7.20
2023-04-10T11:16:13.764Z,8.38
2023-04-10T11:21:19.599Z,6.77
2023-04-10T11:26:40.183Z,6.70
2023-04-10T11:31:48.338Z,8.55
2023-04-10T11:36:53.718Z,7.45
2023-04-10T11:41:59.720Z,7.00
2023-04-10T11:47:08.169Z,5.68
2023-04-10T11:52:13.366Z,7.70
2023-04-10T11:57:19.078Z,7.03
2023-04-10T12:02:26.879Z,7.35
2023-04-10T12:07:33.156Z,8.27
2023-04-10T12:12:38.687Z,7.93
2023-04-10T12:17:46.470Z,7.88
2023-04-10T12:22:51.891Z,6.00
2023-04-10T12:27:57.089Z,7.78
2023-04-10T12:33:07.907Z,8.73
2023-04-10T12:38:16.054Z,6.88
2023-04-10T12:43:35.187Z,8.05
2023-04-10T12:48:42.894Z,8.37
2023-04-10T12:53:57.511Z,7.65
2023-04-10T12:59:10.116Z,7.18
2023-04-10T13:04:19.098Z,11.48
2023-04-10T13:09:24.317Z,7.30
2023-04-10T13:14:29.396Z,7.68
2023-04-10T13:19:37.295Z,9.07
2023-04-10T13:24:42.579Z,6.82
2023-04-10T13:29:47.874Z,6.57
2023-04-10T13:34:57.885Z,7.43
2023-04-10T13:40:02.983Z,5.60
2023-04-10T13:45:08.922Z,5.88
2023-04-10T13:50:16.779Z,7.22
2023-04-10T13:55:22.030Z,5.70
2023-04-10T14:00:28.020Z,6.13
2023-04-10T14:05:35.807Z,6.50
2023-04-10T14:10:42.878Z,8.60
2023-04-10T14:15:48.023Z,7.85
2023-04-10T14:20:55.969Z,8.48
2023-04-10T14:26:01.301Z,9.30
2023-04-10T14:31:08.343Z,8.10
2023-04-10T14:36:16.292Z,6.07
2023-04-10T14:41:21.381Z,10.18
2023-04-10T14:46:26.649Z,8.93
2023-04-10T14:51:34.312Z,8.20
2023-04-10T14:56:39.609Z,35.30
2023-04-10T15:01:44.681Z,14.80
2023-04-10T15:06:52.643Z,15.77
2023-04-10T15:11:58.153Z,12.32
2023-04-10T15:17:03.291Z,12.60
2023-04-10T15:22:11.323Z,13.98
2023-04-10T15:27:16.437Z,11.48
2023-04-10T15:32:21.660Z,18.73
2023-04-10T15:37:29.498Z,13.32
2023-04-10T15:42:34.557Z,14.43
2023-04-10T15:47:39.673Z,13.50
2023-04-10T15:52:47.541Z,12.15
2023-04-10T15:57:53.208Z,13.60
2023-04-10T16:02:58.537Z,11.85
2023-04-10T16:08:06.748Z,12.20
2023-04-10T16:13:11.818Z,12.60
2023-04-10T16:18:16.969Z,10.70
2023-04-10T16:23:25.135Z,10.93
2023-04-10T16:28:30.539Z,8.65
2023-04-10T16:33:35.543Z,9.70
2023-04-10T16:38:45.016Z,8.93
2023-04-10T16:43:50.121Z,9.93
2023-04-10T16:48:55.661Z,8.98
2023-04-10T16:54:04.025Z,8.88
2023-04-10T16:59:09.148Z,7.28
2023-04-10T17:04:14.235Z,9.15
2023-04-10T17:09:24.072Z,11.35
2023-04-10T17:14:29.252Z,17.30
2023-04-10T17:19:35.135Z,8.00
2023-04-10T17:24:43.280Z,12.85
2023-04-10T17:29:51.744Z,11.95
2023-04-10T17:34:57.099Z,12.02
2023-04-10T17:40:04.995Z,13.10
2023-04-10T17:45:11.254Z,12.93
2023-04-10T17:50:16.645Z,12.65
2023-04-10T17:55:27.320Z,14.02
2023-04-10T18:00:32.900Z,15.02
2023-04-10T18:05:40.054Z,18.83
2023-04-10T18:10:50.880Z,13.65
2023-04-10T18:15:55.928Z,17.42
2023-04-10T18:21:01.039Z,15.25
2023-04-10T18:26:09.164Z,12.60
2023-04-10T18:31:16.268Z,15.23
2023-04-10T18:36:24.487Z,9.90
2023-04-10T18:41:32.322Z,13.52
2023-04-10T18:46:37.968Z,11.90
2023-04-10T18:51:43.454Z,12.20
2023-04-10T18:56:51.835Z,17.30
2023-04-10T19:01:57.046Z,13.85
2023-04-10T19:07:03.046Z,14.57
2023-04-10T19:12:12.203Z,14.85
2023-04-10T19:17:17.742Z,16.48
2023-04-10T19:22:22.841Z,19.20
2023-04-10T19:27:30.584Z,15.60
2023-04-10T19:32:35.842Z,12.75
2023-04-10T19:37:41.050Z,13.93
2023-04-10T19:42:48.848Z,18.38
2023-04-10T19:47:54.594Z,17.75
2023-04-10T19:52:59.866Z,24.30
2023-04-10T19:58:10.869Z,21.17
2023-04-10T20:03:28.101Z,17.15
2023-04-10T20:08:33.445Z,21.35
2023-04-10T20:13:41.767Z,15.20
2023-04-10T20:18:47.002Z,16.33
2023-04-10T20:23:52.102Z,18.77
2023-04-10T20:29:00.746Z,18.27
2023-04-10T20:34:06.066Z,18.98
2023-04-10T20:39:11.333Z,19.77
2023-04-10T20:44:18.938Z,18.20
2023-04-10T20:49:24.566Z,19.02
2023-04-10T20:54:29.651Z,20.52
2023-04-10T20:59:37.654Z,20.60
2023-04-10T21:04:42.779Z,20.35
2023-04-10T21:09:47.819Z,18.65
2023-04-10T21:14:55.593Z,19.88
2023-04-10T21:20:01.369Z,65.38
2023-04-10T21:25:06.751Z,26.80
2023-04-10T21:30:15.265Z,30.33
2023-04-10T21:35:20.462Z,46.15
2023-04-10T21:40:26.475Z,57.28
2023-04-10T21:45:34.952Z,106.70
2023-04-10T21:50:40.102Z,111.70
2023-04-10T21:55:45.393Z,101.20
2023-04-10T22:00:54.726Z,47.42
2023-04-10T22:06:00.140Z,42.10
2023-04-10T22:11:05.354Z,40.10
2023-04-10T22:16:13.204Z,48.95
2023-04-10T22:21:18.264Z,40.75
2023-04-10T22:26:23.483Z,37.53
2023-04-10T22:31:34.317Z,70.32
2023-04-10T22:36:39.906Z,52.00
2023-04-10T22:41:46.055Z,47.25
2023-04-10T22:46:53.807Z,52.22
2023-04-10T22:51:58.936Z,50.17
2023-04-10T22:57:04.056Z,41.80
2023-04-10T23:02:11.991Z,30.58
2023-04-10T23:07:17.206Z,26.33
2023-04-10T23:12:22.322Z,29.00
2023-04-10T23:17:30.144Z,26.10
2023-04-10T23:22:35.281Z,27.25
2023-04-10T23:27:40.453Z,29.02
2023-04-10T23:32:48.358Z,32.47
2023-04-10T23:37:53.900Z,37.17
2023-04-10T23:42:59.038Z,41.80
2023-04-10T23:48:06.952Z,28.92
2023-04-10T23:53:13.997Z,24.02
2023-04-10T23:58:19.723Z,21.98
